sensor_id;sensor_type;location;lat;lon;timestamp;P1;durP1;ratioP1;P2;durP2;ratioP2
19758;SDS011;10038;42.662;23.278;2023-05-10T00:01:59;8.83;;;6.37;;
19758;SDS011;10038;42.662;23.278;2023-05-10T00:04:26;8.03;;;5.90;;
19758;SDS011;10038;42.662;23.278;2023-05-10T00:06:53;11.37;;;7.20;;
19758;SDS011;10038;42.662;23.278;2023-05-10T00:09:20;8.60;;;6.20;;
19758;SDS011;10038;42.662;23.278;2023-05-10T00:11:47;10.23;;;7.23;;
19758;SDS011;10038;42.662;23.278;2023-05-10T00:14:13;12.30;;;8.00;;
19758;SDS011;10038;42.662;23.278;2023-05-10T00:16:42;10.13;;;7.13;;
19758;SDS011;10038;42.662;23.278;2023-05-10T00:19:09;9.93;;;6.63;;
19758;SDS011;10038;42.662;23.278;2023-05-10T00:21:36;12.30;;;8.10;;
19758;SDS011;10038;42.662;23.278;2023-05-10T00:24:03;8.20;;;6.53;;
19758;SDS011;10038;42.662;23.278;2023-05-10T00:26:30;10.10;;;5.80;;
19758;SDS011;10038;42.662;23.278;2023-05-10T00:28:57;8.63;;;6.97;;
19758;SDS011;10038;42.662;23.278;2023-05-10T00:31:25;9.07;;;6.27;;
19758;SDS011;10038;42.662;23.278;2023-05-10T00:33:53;11.97;;;7.63;;
19758;SDS011;10038;42.662;23.278;2023-05-10T00:36:20;10.40;;;7.30;;
19758;SDS011;10038;42.662;23.278;2023-05-10T00:38:47;9.67;;;7.57;;
19758;SDS011;10038;42.662;23.278;2023-05-10T00:41:19;10.10;;;6.40;;
19758;SDS011;10038;42.662;23.278;2023-05-10T00:43:47;8.50;;;6.40;;
19758;SDS011;10038;42.662;23.278;2023-05-10T00:46:14;10.20;;;7.03;;
19758;SDS011;10038;42.662;23.278;2023-05-10T00:48:42;9.60;;;7.00;;
19758;SDS011;10038;42.662;23.278;2023-05-10T00:51:12;12.07;;;7.70;;
19758;SDS011;10038;42.662;23.278;2023-05-10T00:53:39;8.87;;;7.30;;
19758;SDS011;10038;42.662;23.278;2023-05-10T00:56:07;9.20;;;7.03;;
19758;SDS011;10038;42.662;23.278;2023-05-10T00:58:34;11.73;;;7.43;;
19758;SDS011;10038;42.662;23.278;2023-05-10T01:01:01;10.30;;;7.33;;
19758;SDS011;10038;42.662;23.278;2023-05-10T01:03:28;11.77;;;7.70;;
19758;SDS011;10038;42.662;23.278;2023-05-10T01:05:55;11.77;;;7.70;;
19758;SDS011;10038;42.662;23.278;2023-05-10T01:08:24;13.40;;;7.90;;
19758;SDS011;10038;42.662;23.278;2023-05-10T01:10:53;11.53;;;8.13;;
19758;SDS011;10038;42.662;23.278;2023-05-10T01:13:23;9.80;;;7.13;;
19758;SDS011;10038;42.662;23.278;2023-05-10T01:15:59;9.20;;;7.27;;
19758;SDS011;10038;42.662;23.278;2023-05-10T01:18:27;11.73;;;7.73;;
19758;SDS011;10038;42.662;23.278;2023-05-10T01:20:59;11.70;;;8.53;;
19758;SDS011;10038;42.662;23.278;2023-05-10T01:23:39;9.80;;;7.23;;
19758;SDS011;10038;42.662;23.278;2023-05-10T01:26:28;12.30;;;8.10;;
19758;SDS011;10038;42.662;23.278;2023-05-10T01:29:19;11.50;;;8.87;;
19758;SDS011;10038;42.662;23.278;2023-05-10T01:32:13;10.53;;;7.33;;
19758;SDS011;10038;42.662;23.278;2023-05-10T01:34:48;19.30;;;8.43;;
19758;SDS011;10038;42.662;23.278;2023-05-10T01:37:26;6.93;;;5.47;;
19758;SDS011;10038;42.662;23.278;2023-05-10T01:40:00;12.13;;;7.83;;
19758;SDS011;10038;42.662;23.278;2023-05-10T01:42:36;8.87;;;6.50;;
19758;SDS011;10038;42.662;23.278;2023-05-10T01:45:11;9.00;;;6.33;;
19758;SDS011;10038;42.662;23.278;2023-05-10T01:47:46;7.60;;;6.70;;
19758;SDS011;10038;42.662;23.278;2023-05-10T01:50:19;7.83;;;6.43;;
19758;SDS011;10038;42.662;23.278;2023-05-10T01:52:53;8.43;;;6.90;;
19758;SDS011;10038;42.662;23.278;2023-05-10T01:55:23;7.53;;;6.00;;
19758;SDS011;10038;42.662;23.278;2023-05-10T01:57:53;9.17;;;5.70;;
19758;SDS011;10038;42.662;23.278;2023-05-10T02:00:26;8.20;;;5.73;;
19758;SDS011;10038;42.662;23.278;2023-05-10T02:02:56;9.00;;;6.00;;
19758;SDS011;10038;42.662;23.278;2023-05-10T02:05:24;7.80;;;5.73;;
19758;SDS011;10038;42.662;23.278;2023-05-10T02:07:52;9.17;;;6.67;;
19758;SDS011;10038;42.662;23.278;2023-05-10T02:10:20;9.47;;;6.60;;
19758;SDS011;10038;42.662;23.278;2023-05-10T02:12:47;11.77;;;6.10;;
19758;SDS011;10038;42.662;23.278;2023-05-10T02:15:17;6.20;;;5.00;;
19758;SDS011;10038;42.662;23.278;2023-05-10T02:17:47;7.60;;;6.47;;
19758;SDS011;10038;42.662;23.278;2023-05-10T02:20:16;12.23;;;5.20;;
19758;SDS011;10038;42.662;23.278;2023-05-10T02:22:45;7.17;;;6.23;;
19758;SDS011;10038;42.662;23.278;2023-05-10T02:25:15;7.50;;;5.40;;
19758;SDS011;10038;42.662;23.278;2023-05-10T02:27:44;7.80;;;5.90;;
19758;SDS011;10038;42.662;23.278;2023-05-10T02:30:13;7.90;;;6.00;;
19758;SDS011;10038;42.662;23.278;2023-05-10T02:32:41;6.87;;;5.67;;
19758;SDS011;10038;42.662;23.278;2023-05-10T02:35:09;6.67;;;5.00;;
19758;SDS011;10038;42.662;23.278;2023-05-10T02:37:38;6.43;;;3.90;;
19758;SDS011;10038;42.662;23.278;2023-05-10T02:40:06;6.23;;;5.13;;
19758;SDS011;10038;42.662;23.278;2023-05-10T02:42:35;7.23;;;5.20;;
19758;SDS011;10038;42.662;23.278;2023-05-10T02:45:05;5.37;;;4.03;;
19758;SDS011;10038;42.662;23.278;2023-05-10T02:47:37;8.97;;;5.37;;
19758;SDS011;10038;42.662;23.278;2023-05-10T02:50:04;6.53;;;4.63;;
19758;SDS011;10038;42.662;23.278;2023-05-10T02:52:36;8.23;;;5.50;;
19758;SDS011;10038;42.662;23.278;2023-05-10T02:55:11;8.67;;;6.17;;
19758;SDS011;10038;42.662;23.278;2023-05-10T02:57:41;9.93;;;5.60;;
19758;SDS011;10038;42.662;23.278;2023-05-10T03:00:14;8.47;;;5.37;;
19758;SDS011;10038;42.662;23.278;2023-05-10T03:02:41;8.90;;;5.50;;
19758;SDS011;10038;42.662;23.278;2023-05-10T03:05:08;7.40;;;5.40;;
19758;SDS011;10038;42.662;23.278;2023-05-10T03:07:35;12.57;;;6.03;;
19758;SDS011;10038;42.662;23.278;2023-05-10T03:10:04;8.23;;;5.83;;
19758;SDS011;10038;42.662;23.278;2023-05-10T03:12:41;7.43;;;5.40;;
19758;SDS011;10038;42.662;23.278;2023-05-10T03:15:22;9.57;;;6.40;;
19758;SDS011;10038;42.662;23.278;2023-05-10T03:18:00;7.47;;;5.63;;
19758;SDS011;10038;42.662;23.278;2023-05-10T03:20:31;7.90;;;5.60;;
19758;SDS011;10038;42.662;23.278;2023-05-10T03:23:02;7.00;;;5.63;;
19758;SDS011;10038;42.662;23.278;2023-05-10T03:25:35;7.03;;;5.60;;
19758;SDS011;10038;42.662;23.278;2023-05-10T03:28:02;7.90;;;5.63;;
19758;SDS011;10038;42.662;23.278;2023-05-10T03:30:31;7.47;;;5.40;;
19758;SDS011;10038;42.662;23.278;2023-05-10T03:33:03;9.33;;;5.93;;
19758;SDS011;10038;42.662;23.278;2023-05-10T03:35:31;10.90;;;6.10;;
19758;SDS011;10038;42.662;23.278;2023-05-10T03:37:58;8.07;;;5.87;;
19758;SDS011;10038;42.662;23.278;2023-05-10T03:40:25;7.20;;;5.93;;
19758;SDS011;10038;42.662;23.278;2023-05-10T03:42:57;6.50;;;5.53;;
19758;SDS011;10038;42.662;23.278;2023-05-10T03:45:24;8.80;;;6.80;;
19758;SDS011;10038;42.662;23.278;2023-05-10T03:47:51;6.90;;;5.33;;
19758;SDS011;10038;42.662;23.278;2023-05-10T03:50:19;8.77;;;5.90;;
19758;SDS011;10038;42.662;23.278;2023-05-10T03:52:46;8.17;;;5.63;;
19758;SDS011;10038;42.662;23.278;2023-05-10T03:55:12;8.53;;;6.03;;
19758;SDS011;10038;42.662;23.278;2023-05-10T03:57:39;8.30;;;5.23;;
19758;SDS011;10038;42.662;23.278;2023-05-10T04:00:08;6.57;;;5.40;;
19758;SDS011;10038;42.662;23.278;2023-05-10T04:02:36;5.30;;;4.43;;
19758;SDS011;10038;42.662;23.278;2023-05-10T04:05:03;5.97;;;4.60;;
19758;SDS011;10038;42.662;23.278;2023-05-10T04:07:31;6.43;;;5.50;;
19758;SDS011;10038;42.662;23.278;2023-05-10T04:09:58;4.50;;;3.53;;
19758;SDS011;10038;42.662;23.278;2023-05-10T04:12:25;8.57;;;5.40;;
19758;SDS011;10038;42.662;23.278;2023-05-10T04:14:52;6.30;;;5.60;;
19758;SDS011;10038;42.662;23.278;2023-05-10T04:17:20;6.27;;;5.23;;
19758;SDS011;10038;42.662;23.278;2023-05-10T04:19:47;8.60;;;5.93;;
19758;SDS011;10038;42.662;23.278;2023-05-10T04:22:14;9.50;;;6.57;;
19758;SDS011;10038;42.662;23.278;2023-05-10T04:24:41;15.03;;;5.47;;
19758;SDS011;10038;42.662;23.278;2023-05-10T04:27:08;6.40;;;5.63;;
19758;SDS011;10038;42.662;23.278;2023-05-10T04:29:34;7.20;;;4.83;;
19758;SDS011;10038;42.662;23.278;2023-05-10T04:32:02;8.10;;;5.53;;
19758;SDS011;10038;42.662;23.278;2023-05-10T04:34:30;8.53;;;6.43;;
19758;SDS011;10038;42.662;23.278;2023-05-10T04:36:59;6.90;;;5.70;;
19758;SDS011;10038;42.662;23.278;2023-05-10T04:39:26;6.27;;;4.80;;
19758;SDS011;10038;42.662;23.278;2023-05-10T04:41:52;6.90;;;5.30;;
19758;SDS011;10038;42.662;23.278;2023-05-10T04:44:19;8.20;;;4.90;;
19758;SDS011;10038;42.662;23.278;2023-05-10T04:46:46;4.97;;;4.47;;
19758;SDS011;10038;42.662;23.278;2023-05-10T04:49:13;7.47;;;5.53;;
19758;SDS011;10038;42.662;23.278;2023-05-10T04:51:42;6.70;;;5.83;;
19758;SDS011;10038;42.662;23.278;2023-05-10T04:54:08;6.83;;;5.17;;
19758;SDS011;10038;42.662;23.278;2023-05-10T04:56:36;5.33;;;4.83;;
19758;SDS011;10038;42.662;23.278;2023-05-10T04:59:03;7.03;;;5.37;;
19758;SDS011;10038;42.662;23.278;2023-05-10T05:01:30;6.37;;;5.27;;
19758;SDS011;10038;42.662;23.278;2023-05-10T05:03:57;6.80;;;5.23;;
19758;SDS011;10038;42.662;23.278;2023-05-10T05:06:24;6.50;;;5.33;;
19758;SDS011;10038;42.662;23.278;2023-05-10T05:08:53;10.30;;;5.93;;
19758;SDS011;10038;42.662;23.278;2023-05-10T05:11:20;8.37;;;4.43;;
19758;SDS011;10038;42.662;23.278;2023-05-10T05:13:47;9.30;;;5.33;;
19758;SDS011;10038;42.662;23.278;2023-05-10T05:16:14;8.10;;;5.70;;
19758;SDS011;10038;42.662;23.278;2023-05-10T05:18:41;8.10;;;6.23;;
19758;SDS011;10038;42.662;23.278;2023-05-10T05:21:14;7.83;;;5.80;;
19758;SDS011;10038;42.662;23.278;2023-05-10T05:23:42;9.93;;;6.80;;
19758;SDS011;10038;42.662;23.278;2023-05-10T05:26:10;7.73;;;6.47;;
19758;SDS011;10038;42.662;23.278;2023-05-10T05:28:38;8.13;;;6.30;;
19758;SDS011;10038;42.662;23.278;2023-05-10T05:31:05;10.80;;;8.00;;
19758;SDS011;10038;42.662;23.278;2023-05-10T05:33:32;8.43;;;6.30;;
19758;SDS011;10038;42.662;23.278;2023-05-10T05:36:00;8.97;;;6.53;;
19758;SDS011;10038;42.662;23.278;2023-05-10T05:38:27;9.27;;;6.20;;
19758;SDS011;10038;42.662;23.278;2023-05-10T05:40:54;10.23;;;7.00;;
19758;SDS011;10038;42.662;23.278;2023-05-10T05:43:22;8.47;;;6.10;;
19758;SDS011;10038;42.662;23.278;2023-05-10T05:45:51;11.97;;;8.07;;
19758;SDS011;10038;42.662;23.278;2023-05-10T05:48:18;11.40;;;7.20;;
19758;SDS011;10038;42.662;23.278;2023-05-10T05:50:45;10.50;;;7.27;;
19758;SDS011;10038;42.662;23.278;2023-05-10T05:53:12;10.60;;;7.10;;
19758;SDS011;10038;42.662;23.278;2023-05-10T05:55:40;10.37;;;6.57;;
19758;SDS011;10038;42.662;23.278;2023-05-10T05:58:06;13.07;;;8.13;;
19758;SDS011;10038;42.662;23.278;2023-05-10T06:00:35;10.67;;;7.43;;
19758;SDS011;10038;42.662;23.278;2023-05-10T06:03:03;11.60;;;7.80;;
19758;SDS011;10038;42.662;23.278;2023-05-10T06:05:31;13.70;;;8.63;;
19758;SDS011;10038;42.662;23.278;2023-05-10T06:07:59;11.30;;;7.97;;
19758;SDS011;10038;42.662;23.278;2023-05-10T06:10:26;10.73;;;7.40;;
19758;SDS011;10038;42.662;23.278;2023-05-10T06:12:53;11.87;;;8.30;;
19758;SDS011;10038;42.662;23.278;2023-05-10T06:15:20;10.80;;;7.73;;
19758;SDS011;10038;42.662;23.278;2023-05-10T06:17:48;12.53;;;8.67;;
19758;SDS011;10038;42.662;23.278;2023-05-10T06:20:16;13.23;;;7.73;;
19758;SDS011;10038;42.662;23.278;2023-05-10T06:22:43;12.13;;;8.30;;
19758;SDS011;10038;42.662;23.278;2023-05-10T06:25:10;15.80;;;8.23;;
19758;SDS011;10038;42.662;23.278;2023-05-10T06:27:37;14.83;;;8.30;;
19758;SDS011;10038;42.662;23.278;2023-05-10T06:30:05;12.90;;;8.40;;
19758;SDS011;10038;42.662;23.278;2023-05-10T06:32:33;9.53;;;7.70;;
19758;SDS011;10038;42.662;23.278;2023-05-10T06:35:02;14.70;;;9.23;;
19758;SDS011;10038;42.662;23.278;2023-05-10T06:37:29;13.57;;;8.43;;
19758;SDS011;10038;42.662;23.278;2023-05-10T06:39:56;11.17;;;7.43;;
19758;SDS011;10038;42.662;23.278;2023-05-10T06:42:23;13.10;;;8.80;;
19758;SDS011;10038;42.662;23.278;2023-05-10T06:44:50;15.17;;;8.50;;
19758;SDS011;10038;42.662;23.278;2023-05-10T06:47:17;12.37;;;7.90;;
19758;SDS011;10038;42.662;23.278;2023-05-10T06:49:44;15.27;;;8.50;;
19758;SDS011;10038;42.662;23.278;2023-05-10T06:52:13;11.47;;;8.27;;
19758;SDS011;10038;42.662;23.278;2023-05-10T06:54:40;13.93;;;8.80;;
19758;SDS011;10038;42.662;23.278;2023-05-10T06:57:07;13.40;;;8.80;;
19758;SDS011;10038;42.662;23.278;2023-05-10T06:59:34;11.27;;;7.90;;
19758;SDS011;10038;42.662;23.278;2023-05-10T07:02:01;12.30;;;6.70;;
19758;SDS011;10038;42.662;23.278;2023-05-10T07:04:28;10.93;;;8.60;;
19758;SDS011;10038;42.662;23.278;2023-05-10T07:06:55;10.80;;;6.57;;
19758;SDS011;10038;42.662;23.278;2023-05-10T07:09:24;12.67;;;7.13;;
19758;SDS011;10038;42.662;23.278;2023-05-10T07:11:51;14.43;;;7.40;;
19758;SDS011;10038;42.662;23.278;2023-05-10T07:14:18;10.93;;;7.00;;
19758;SDS011;10038;42.662;23.278;2023-05-10T07:16:44;13.03;;;8.77;;
19758;SDS011;10038;42.662;23.278;2023-05-10T07:19:12;14.03;;;8.13;;
19758;SDS011;10038;42.662;23.278;2023-05-10T07:21:39;10.20;;;7.37;;
19758;SDS011;10038;42.662;23.278;2023-05-10T07:24:08;13.10;;;8.60;;
19758;SDS011;10038;42.662;23.278;2023-05-10T07:26:37;10.97;;;8.30;;
19758;SDS011;10038;42.662;23.278;2023-05-10T07:29:04;10.70;;;6.77;;
19758;SDS011;10038;42.662;23.278;2023-05-10T07:31:30;13.37;;;9.23;;
19758;SDS011;10038;42.662;23.278;2023-05-10T07:33:57;10.57;;;7.63;;
19758;SDS011;10038;42.662;23.278;2023-05-10T07:36:25;13.63;;;8.30;;
19758;SDS011;10038;42.662;23.278;2023-05-10T07:38:52;13.00;;;8.40;;
19758;SDS011;10038;42.662;23.278;2023-05-10T07:41:19;11.50;;;9.03;;
19758;SDS011;10038;42.662;23.278;2023-05-10T07:43:49;15.57;;;8.70;;
19758;SDS011;10038;42.662;23.278;2023-05-10T07:46:16;12.60;;;8.47;;
19758;SDS011;10038;42.662;23.278;2023-05-10T07:48:44;11.23;;;8.20;;
19758;SDS011;10038;42.662;23.278;2023-05-10T07:51:12;15.53;;;9.43;;
19758;SDS011;10038;42.662;23.278;2023-05-10T07:53:39;11.80;;;7.47;;
19758;SDS011;10038;42.662;23.278;2023-05-10T07:56:19;12.80;;;9.07;;
19758;SDS011;10038;42.662;23.278;2023-05-10T07:58:49;14.57;;;8.90;;
19758;SDS011;10038;42.662;23.278;2023-05-10T08:01:16;11.13;;;8.20;;
19758;SDS011;10038;42.662;23.278;2023-05-10T08:03:43;11.73;;;7.87;;
19758;SDS011;10038;42.662;23.278;2023-05-10T08:06:10;13.30;;;8.83;;
19758;SDS011;10038;42.662;23.278;2023-05-10T08:08:37;11.03;;;7.20;;
19758;SDS011;10038;42.662;23.278;2023-05-10T08:11:04;15.93;;;9.30;;
19758;SDS011;10038;42.662;23.278;2023-05-10T08:13:31;12.17;;;8.93;;
19758;SDS011;10038;42.662;23.278;2023-05-10T08:16:00;13.00;;;9.10;;
19758;SDS011;10038;42.662;23.278;2023-05-10T08:18:27;13.63;;;8.93;;
19758;SDS011;10038;42.662;23.278;2023-05-10T08:20:54;13.87;;;8.93;;
19758;SDS011;10038;42.662;23.278;2023-05-10T08:23:21;11.53;;;8.10;;
19758;SDS011;10038;42.662;23.278;2023-05-10T08:25:48;10.27;;;8.07;;
19758;SDS011;10038;42.662;23.278;2023-05-10T08:28:15;14.17;;;9.60;;
19758;SDS011;10038;42.662;23.278;2023-05-10T08:30:42;10.13;;;8.30;;
19758;SDS011;10038;42.662;23.278;2023-05-10T08:33:11;12.60;;;8.30;;
19758;SDS011;10038;42.662;23.278;2023-05-10T08:35:38;11.23;;;9.70;;
19758;SDS011;10038;42.662;23.278;2023-05-10T08:38:06;12.50;;;8.53;;
19758;SDS011;10038;42.662;23.278;2023-05-10T08:40:33;12.47;;;8.20;;
19758;SDS011;10038;42.662;23.278;2023-05-10T08:43:03;14.57;;;9.20;;
19758;SDS011;10038;42.662;23.278;2023-05-10T08:45:33;11.70;;;7.40;;
19758;SDS011;10038;42.662;23.278;2023-05-10T08:48:04;11.80;;;8.10;;
19758;SDS011;10038;42.662;23.278;2023-05-10T08:50:34;11.23;;;8.87;;
19758;SDS011;10038;42.662;23.278;2023-05-10T08:53:04;12.03;;;8.30;;
19758;SDS011;10038;42.662;23.278;2023-05-10T08:55:32;17.10;;;9.83;;
19758;SDS011;10038;42.662;23.278;2023-05-10T08:58:01;12.00;;;9.50;;
19758;SDS011;10038;42.662;23.278;2023-05-10T09:00:29;9.73;;;7.37;;
19758;SDS011;10038;42.662;23.278;2023-05-10T09:02:57;13.30;;;9.53;;
19758;SDS011;10038;42.662;23.278;2023-05-10T09:05:25;11.00;;;8.33;;
19758;SDS011;10038;42.662;23.278;2023-05-10T09:07:53;15.07;;;9.70;;
19758;SDS011;10038;42.662;23.278;2023-05-10T09:10:20;17.27;;;10.30;;
19758;SDS011;10038;42.662;23.278;2023-05-10T09:12:51;15.93;;;11.13;;
19758;SDS011;10038;42.662;23.278;2023-05-10T09:15:19;11.33;;;10.13;;
19758;SDS011;10038;42.662;23.278;2023-05-10T09:17:46;13.53;;;10.07;;
19758;SDS011;10038;42.662;23.278;2023-05-10T09:20:16;12.73;;;9.30;;
19758;SDS011;10038;42.662;23.278;2023-05-10T09:22:44;11.00;;;8.80;;
19758;SDS011;10038;42.662;23.278;2023-05-10T09:25:13;14.67;;;12.00;;
19758;SDS011;10038;42.662;23.278;2023-05-10T09:27:43;13.50;;;9.67;;
19758;SDS011;10038;42.662;23.278;2023-05-10T09:30:14;14.30;;;10.20;;
19758;SDS011;10038;42.662;23.278;2023-05-10T09:32:43;19.10;;;10.07;;
19758;SDS011;10038;42.662;23.278;2023-05-10T09:35:12;11.37;;;9.30;;
19758;SDS011;10038;42.662;23.278;2023-05-10T09:37:42;12.63;;;9.60;;
19758;SDS011;10038;42.662;23.278;2023-05-10T09:40:13;12.97;;;9.50;;
19758;SDS011;10038;42.662;23.278;2023-05-10T09:42:42;13.40;;;11.07;;
19758;SDS011;10038;42.662;23.278;2023-05-10T09:45:16;10.20;;;6.93;;
19758;SDS011;10038;42.662;23.278;2023-05-10T09:47:43;12.90;;;8.80;;
19758;SDS011;10038;42.662;23.278;2023-05-10T09:50:12;8.90;;;7.63;;
19758;SDS011;10038;42.662;23.278;2023-05-10T09:52:46;16.90;;;10.90;;
19758;SDS011;10038;42.662;23.278;2023-05-10T09:55:16;10.10;;;8.30;;
19758;SDS011;10038;42.662;23.278;2023-05-10T09:57:45;12.33;;;10.13;;
19758;SDS011;10038;42.662;23.278;2023-05-10T10:00:18;14.20;;;10.80;;
19758;SDS011;10038;42.662;23.278;2023-05-10T10:02:47;14.50;;;9.87;;
19758;SDS011;10038;42.662;23.278;2023-05-10T10:05:14;11.90;;;10.00;;
19758;SDS011;10038;42.662;23.278;2023-05-10T10:07:42;13.50;;;9.83;;
19758;SDS011;10038;42.662;23.278;2023-05-10T10:10:10;11.30;;;8.57;;
19758;SDS011;10038;42.662;23.278;2023-05-10T10:12:40;13.50;;;9.80;;
19758;SDS011;10038;42.662;23.278;2023-05-10T10:15:08;14.50;;;10.27;;
19758;SDS011;10038;42.662;23.278;2023-05-10T10:17:36;15.20;;;11.53;;
19758;SDS011;10038;42.662;23.278;2023-05-10T10:20:04;13.73;;;8.83;;
19758;SDS011;10038;42.662;23.278;2023-05-10T10:22:32;11.30;;;9.27;;
19758;SDS011;10038;42.662;23.278;2023-05-10T10:24:59;10.50;;;9.27;;
19758;SDS011;10038;42.662;23.278;2023-05-10T10:27:28;10.63;;;9.30;;
19758;SDS011;10038;42.662;23.278;2023-05-10T10:30:13;12.00;;;10.20;;
19758;SDS011;10038;42.662;23.278;2023-05-10T10:32:59;11.23;;;8.40;;
19758;SDS011;10038;42.662;23.278;2023-05-10T10:35:33;10.20;;;8.80;;
19758;SDS011;10038;42.662;23.278;2023-05-10T10:38:01;9.47;;;7.83;;
19758;SDS011;10038;42.662;23.278;2023-05-10T10:40:28;13.00;;;9.07;;
19758;SDS011;10038;42.662;23.278;2023-05-10T10:42:56;12.00;;;9.47;;
19758;SDS011;10038;42.662;23.278;2023-05-10T10:45:25;9.50;;;8.50;;
19758;SDS011;10038;42.662;23.278;2023-05-10T10:50:55;8.70;;;7.83;;
19758;SDS011;10038;42.662;23.278;2023-05-10T10:53:25;17.43;;;8.97;;
19758;SDS011;10038;42.662;23.278;2023-05-10T10:56:02;12.30;;;8.23;;
19758;SDS011;10038;42.662;23.278;2023-05-10T10:58:33;11.20;;;8.80;;
19758;SDS011;10038;42.662;23.278;2023-05-10T11:01:14;9.63;;;8.10;;
19758;SDS011;10038;42.662;23.278;2023-05-10T11:03:55;10.27;;;8.40;;
19758;SDS011;10038;42.662;23.278;2023-05-10T11:06:44;9.87;;;8.07;;
19758;SDS011;10038;42.662;23.278;2023-05-10T11:09:11;11.60;;;7.90;;
19758;SDS011;10038;42.662;23.278;2023-05-10T11:11:50;9.27;;;7.83;;
19758;SDS011;10038;42.662;23.278;2023-05-10T11:14:20;8.23;;;7.43;;
19758;SDS011;10038;42.662;23.278;2023-05-10T11:16:50;8.97;;;7.93;;
19758;SDS011;10038;42.662;23.278;2023-05-10T11:19:17;10.40;;;7.90;;
19758;SDS011;10038;42.662;23.278;2023-05-10T11:21:45;10.93;;;8.07;;
19758;SDS011;10038;42.662;23.278;2023-05-10T11:24:14;10.63;;;7.93;;
19758;SDS011;10038;42.662;23.278;2023-05-10T11:26:42;11.87;;;8.47;;
19758;SDS011;10038;42.662;23.278;2023-05-10T11:29:09;16.03;;;11.37;;
19758;SDS011;10038;42.662;23.278;2023-05-10T11:31:41;10.63;;;7.43;;
19758;SDS011;10038;42.662;23.278;2023-05-10T11:34:11;11.93;;;9.10;;
19758;SDS011;10038;42.662;23.278;2023-05-10T11:36:51;7.40;;;6.40;;
19758;SDS011;10038;42.662;23.278;2023-05-10T11:39:19;9.93;;;8.83;;
19758;SDS011;10038;42.662;23.278;2023-05-10T11:41:48;13.37;;;9.10;;
19758;SDS011;10038;42.662;23.278;2023-05-10T11:44:15;13.83;;;9.40;;
19758;SDS011;10038;42.662;23.278;2023-05-10T11:46:42;23.27;;;12.20;;
19758;SDS011;10038;42.662;23.278;2023-05-10T11:49:10;19.20;;;14.30;;
19758;SDS011;10038;42.662;23.278;2023-05-10T11:51:39;10.37;;;8.60;;
19758;SDS011;10038;42.662;23.278;2023-05-10T11:54:08;10.63;;;8.77;;
19758;SDS011;10038;42.662;23.278;2023-05-10T11:56:36;9.60;;;8.27;;
19758;SDS011;10038;42.662;23.278;2023-05-10T11:59:04;8.70;;;7.67;;
19758;SDS011;10038;42.662;23.278;2023-05-10T12:01:31;11.90;;;8.07;;
19758;SDS011;10038;42.662;23.278;2023-05-10T12:04:00;10.33;;;8.50;;
19758;SDS011;10038;42.662;23.278;2023-05-10T12:06:29;10.07;;;8.83;;
19758;SDS011;10038;42.662;23.278;2023-05-10T12:08:58;10.10;;;7.43;;
19758;SDS011;10038;42.662;23.278;2023-05-10T12:11:25;10.93;;;8.77;;
19758;SDS011;10038;42.662;23.278;2023-05-10T12:13:53;12.50;;;9.03;;
19758;SDS011;10038;42.662;23.278;2023-05-10T12:16:22;11.40;;;9.70;;
19758;SDS011;10038;42.662;23.278;2023-05-10T12:18:50;9.77;;;8.77;;
19758;SDS011;10038;42.662;23.278;2023-05-10T12:21:18;12.63;;;9.73;;
19758;SDS011;10038;42.662;23.278;2023-05-10T12:23:49;13.90;;;8.40;;
19758;SDS011;10038;42.662;23.278;2023-05-10T12:26:17;9.57;;;7.77;;
19758;SDS011;10038;42.662;23.278;2023-05-10T12:28:48;13.80;;;9.17;;
19758;SDS011;10038;42.662;23.278;2023-05-10T12:31:15;11.07;;;7.23;;
19758;SDS011;10038;42.662;23.278;2023-05-10T12:33:42;9.93;;;7.80;;
19758;SDS011;10038;42.662;23.278;2023-05-10T12:36:10;11.00;;;8.33;;
19758;SDS011;10038;42.662;23.278;2023-05-10T12:38:40;12.97;;;8.93;;
19758;SDS011;10038;42.662;23.278;2023-05-10T12:41:10;13.00;;;10.17;;
19758;SDS011;10038;42.662;23.278;2023-05-10T12:43:38;11.00;;;8.70;;
19758;SDS011;10038;42.662;23.278;2023-05-10T12:46:06;11.70;;;7.83;;
19758;SDS011;10038;42.662;23.278;2023-05-10T12:48:34;14.90;;;9.00;;
19758;SDS011;10038;42.662;23.278;2023-05-10T12:51:01;12.80;;;9.60;;
19758;SDS011;10038;42.662;23.278;2023-05-10T12:53:30;11.33;;;9.07;;
19758;SDS011;10038;42.662;23.278;2023-05-10T12:55:57;10.33;;;7.93;;
19758;SDS011;10038;42.662;23.278;2023-05-10T12:58:26;14.20;;;9.07;;
19758;SDS011;10038;42.662;23.278;2023-05-10T13:00:53;16.23;;;9.77;;
19758;SDS011;10038;42.662;23.278;2023-05-10T13:03:21;10.80;;;9.10;;
19758;SDS011;10038;42.662;23.278;2023-05-10T13:05:48;14.30;;;10.87;;
19758;SDS011;10038;42.662;23.278;2023-05-10T13:08:15;13.07;;;10.03;;
19758;SDS011;10038;42.662;23.278;2023-05-10T13:10:42;14.13;;;10.70;;
19758;SDS011;10038;42.662;23.278;2023-05-10T13:13:10;19.33;;;10.40;;
19758;SDS011;10038;42.662;23.278;2023-05-10T13:15:38;14.20;;;9.47;;
19758;SDS011;10038;42.662;23.278;2023-05-10T13:18:05;13.10;;;10.47;;
19758;SDS011;10038;42.662;23.278;2023-05-10T13:20:33;19.23;;;10.50;;
19758;SDS011;10038;42.662;23.278;2023-05-10T13:23:00;13.17;;;9.67;;
19758;SDS011;10038;42.662;23.278;2023-05-10T13:25:27;11.30;;;9.53;;
19758;SDS011;10038;42.662;23.278;2023-05-10T13:27:55;11.83;;;9.20;;
19758;SDS011;10038;42.662;23.278;2023-05-10T13:30:22;16.37;;;10.53;;
19758;SDS011;10038;42.662;23.278;2023-05-10T13:32:51;11.97;;;9.20;;
19758;SDS011;10038;42.662;23.278;2023-05-10T13:35:18;13.17;;;9.10;;
19758;SDS011;10038;42.662;23.278;2023-05-10T13:37:45;12.47;;;9.70;;
19758;SDS011;10038;42.662;23.278;2023-05-10T13:40:12;12.50;;;9.10;;
19758;SDS011;10038;42.662;23.278;2023-05-10T13:42:40;12.83;;;8.10;;
19758;SDS011;10038;42.662;23.278;2023-05-10T13:45:09;13.70;;;7.67;;
19758;SDS011;10038;42.662;23.278;2023-05-10T13:47:37;9.80;;;7.73;;
19758;SDS011;10038;42.662;23.278;2023-05-10T13:50:06;12.03;;;8.40;;
19758;SDS011;10038;42.662;23.278;2023-05-10T13:52:34;12.97;;;10.40;;
19758;SDS011;10038;42.662;23.278;2023-05-10T13:55:01;12.33;;;8.30;;
19758;SDS011;10038;42.662;23.278;2023-05-10T13:57:28;11.60;;;8.07;;
19758;SDS011;10038;42.662;23.278;2023-05-10T13:59:55;16.37;;;8.43;;
19758;SDS011;10038;42.662;23.278;2023-05-10T14:02:22;12.20;;;8.33;;
19758;SDS011;10038;42.662;23.278;2023-05-10T14:04:50;9.47;;;7.60;;
19758;SDS011;10038;42.662;23.278;2023-05-10T14:07:19;14.67;;;9.00;;
19758;SDS011;10038;42.662;23.278;2023-05-10T14:09:46;14.30;;;10.37;;
19758;SDS011;10038;42.662;23.278;2023-05-10T14:12:13;11.57;;;9.40;;
19758;SDS011;10038;42.662;23.278;2023-05-10T14:14:41;13.53;;;9.30;;
19758;SDS011;10038;42.662;23.278;2023-05-10T14:17:08;11.00;;;9.20;;
19758;SDS011;10038;42.662;23.278;2023-05-10T14:19:36;12.97;;;9.87;;
19758;SDS011;10038;42.662;23.278;2023-05-10T14:22:03;13.40;;;8.93;;
19758;SDS011;10038;42.662;23.278;2023-05-10T14:24:32;18.40;;;8.20;;
19758;SDS011;10038;42.662;23.278;2023-05-10T14:27:00;14.50;;;8.40;;
19758;SDS011;10038;42.662;23.278;2023-05-10T14:29:27;13.17;;;8.80;;
19758;SDS011;10038;42.662;23.278;2023-05-10T14:31:54;12.73;;;8.10;;
19758;SDS011;10038;42.662;23.278;2023-05-10T14:34:21;10.17;;;8.40;;
19758;SDS011;10038;42.662;23.278;2023-05-10T14:36:48;11.37;;;9.10;;
19758;SDS011;10038;42.662;23.278;2023-05-10T14:39:15;12.50;;;8.17;;